Time;durP1;ratioP1;P1;durP2;ratioP2;P2;SDS_P1;SDS_P2;PMS_P1;PMS_P2;Temp;Humidity;BMP_temperature;BMP_pressure;BME280_temperature;BME280_humidity;BME280_pressure;Samples;Min_cycle;Max_cycle;Signal;HPM_P1;HPM_P2
2022/09/05 00:02:02;;;;;;;3.13;2.55;;;20.00;99.90;;;;;;5033273;28;20298;-47
2022/09/05 00:04:48;;;;;;;9.77;3.10;;;19.90;99.90;;;;;;5032884;28;20183;-47
2022/09/05 00:07:41;;;;;;;3.50;3.15;;;19.90;99.90;;;;;;5033052;28;20205;-47
2022/09/05 00:10:43;;;;;;;4.18;2.83;;;19.80;99.90;;;;;;5032661;28;20265;-46
2022/09/05 00:13:20;;;;;;;6.68;3.10;;;19.90;99.90;;;;;;5032552;28;20306;-47
2022/09/05 00:16:02;;;;;;;4.78;2.95;;;19.90;99.90;;;;;;5032794;28;20170;-48
2022/09/05 00:19:09;;;;;;;4.60;2.95;;;19.80;99.90;;;;;;5032448;28;20190;-47
2022/09/05 00:21:52;;;;;;;3.60;2.65;;;19.80;99.90;;;;;;5010474;28;20176;-46
2022/09/05 00:24:44;;;;;;;5.05;3.03;;;19.90;99.90;;;;;;5010889;28;20231;-48
2022/09/05 00:27:14;;;;;;;2.83;2.50;;;19.70;99.90;;;;;;5027481;28;20265;-47
2022/09/05 00:29:40;;;;;;;4.55;3.47;;;19.60;99.90;;;;;;5032245;28;20210;-47
2022/09/05 00:32:43;;;;;;;4.88;3.92;;;19.70;99.90;;;;;;5032467;28;20522;-47
2022/09/05 00:35:09;;;;;;;4.45;3.40;;;19.60;99.90;;;;;;5032206;28;20170;-46
2022/09/05 00:37:41;;;;;;;3.90;3.55;;;19.70;99.90;;;;;;5032138;28;20171;-46
2022/09/05 00:40:28;;;;;;;3.60;3.30;;;19.60;99.90;;;;;;5032106;28;20171;-46
2022/09/05 00:43:02;;;;;;;4.43;3.40;;;19.50;99.90;;;;;;5032319;28;20179;-46
2022/09/05 00:45:42;;;;;;;5.05;3.55;;;19.40;99.90;;;;;;5032109;28;20159;-47
2022/09/05 00:48:35;;;;;;;5.32;3.25;;;19.40;99.90;;;;;;5032111;28;20256;-47
2022/09/05 00:51:21;;;;;;;6.70;3.60;;;19.40;99.90;;;;;;5032223;28;20167;-47
2022/09/05 00:54:22;;;;;;;4.15;3.30;;;19.20;99.90;;;;;;5032438;28;20270;-46
2022/09/05 00:57:20;;;;;;;4.22;3.05;;;19.30;99.90;;;;;;5031975;28;20163;-45
2022/09/05 01:00:00;;;;;;;5.32;3.83;;;19.30;99.90;;;;;;5032160;28;20237;-46
2022/09/05 01:02:57;;;;;;;6.35;3.90;;;19.40;99.90;;;;;;5031838;28;20167;-47
2022/09/05 01:05:54;;;;;;;4.30;3.80;;;19.40;99.90;;;;;;5031873;28;20168;-46
2022/09/05 01:08:41;;;;;;;6.45;4.18;;;19.40;99.90;;;;;;5031907;28;20264;-47
2022/09/05 01:11:26;;;;;;;4.03;3.45;;;19.40;99.90;;;;;;5031740;28;20568;-47
2022/09/05 01:14:05;;;;;;;3.92;3.58;;;19.50;99.90;;;;;;5031547;28;20231;-47
2022/09/05 01:17:08;;;;;;;4.70;3.50;;;19.40;99.90;;;;;;5031964;28;20178;-47
2022/09/05 01:19:53;;;;;;;5.03;3.85;;;19.40;99.90;;;;;;5031749;28;20182;-46
2022/09/05 01:22:46;;;;;;;7.32;3.45;;;19.40;99.90;;;;;;5031313;28;20627;-46
2022/09/05 01:25:33;;;;;;;5.18;3.88;;;19.30;99.90;;;;;;5031659;28;20254;-48
2022/09/05 01:28:22;;;;;;;6.25;3.00;;;19.30;99.90;;;;;;5031698;28;20207;-47
2022/09/05 01:31:02;;;;;;;6.07;3.63;;;19.20;99.90;;;;;;5031616;28;20163;-46
2022/09/05 01:33:54;;;;;;;5.35;3.83;;;19.30;99.90;;;;;;5031537;28;20174;-46
2022/09/05 01:36:37;;;;;;;5.20;3.45;;;19.20;99.90;;;;;;5031508;28;20605;-47
2022/09/05 01:39:18;;;;;;;6.18;3.72;;;19.10;99.90;;;;;;5031403;28;20168;-47
2022/09/05 01:42:11;;;;;;;5.55;3.60;;;19.10;99.90;;;;;;5032027;28;20176;-47
2022/09/05 01:44:55;;;;;;;4.75;3.45;;;19.10;99.90;;;;;;5031448;28;20174;-47
2022/09/05 01:47:43;;;;;;;3.65;3.35;;;19.10;99.90;;;;;;5031447;28;20197;-47
2022/09/05 01:50:31;;;;;;;4.88;3.53;;;19.10;99.90;;;;;;5031716;28;20183;-47
2022/09/05 01:53:05;;;;;;;5.07;3.58;;;19.00;99.90;;;;;;5031386;28;20171;-48
2022/09/05 01:55:31;;;;;;;4.13;3.50;;;19.00;99.90;;;;;;5031443;28;20168;-47
2022/09/05 01:58:14;;;;;;;4.85;3.50;;;19.00;99.90;;;;;;5031547;28;20179;-47
2022/09/05 02:00:57;;;;;;;3.90;3.60;;;18.90;99.90;;;;;;5031539;28;20217;-46
2022/09/05 02:03:46;;;;;;;4.30;3.65;;;18.80;99.90;;;;;;5031458;28;20222;-46
2022/09/05 02:06:46;;;;;;;4.13;3.75;;;18.80;99.90;;;;;;5031330;28;20190;-46
2022/09/05 02:09:25;;;;;;;5.22;4.30;;;18.70;99.90;;;;;;5030898;28;20215;-45
2022/09/05 02:12:05;;;;;;;5.18;4.30;;;18.70;99.90;;;;;;5031234;28;20246;-46
2022/09/05 02:15:06;;;;;;;4.78;3.90;;;18.60;99.90;;;;;;5030975;28;20218;-46
2022/09/05 02:17:40;;;;;;;4.85;3.70;;;18.70;99.90;;;;;;5031440;28;20220;-46
2022/09/05 02:20:24;;;;;;;4.38;3.92;;;18.70;99.90;;;;;;5034561;28;20512;-47
2022/09/05 02:23:08;;;;;;;5.80;3.88;;;18.60;99.90;;;;;;5034710;28;20172;-47
2022/09/05 02:25:44;;;;;;;5.53;3.72;;;18.60;99.90;;;;;;5034668;28;20164;-47
2022/09/05 02:28:43;;;;;;;4.68;3.80;;;18.60;99.90;;;;;;5034583;28;20533;-48
2022/09/05 02:31:25;;;;;;;5.25;3.95;;;18.60;99.90;;;;;;5034645;28;20246;-47
2022/09/05 02:34:06;;;;;;;5.53;3.85;;;18.60;99.90;;;;;;5034520;28;20174;-48
2022/09/05 02:36:41;;;;;;;6.18;4.22;;;18.50;99.90;;;;;;5034449;28;20167;-48
2022/09/05 02:39:43;;;;;;;5.40;3.83;;;18.50;99.90;;;;;;5034378;28;20171;-47
2022/09/05 02:42:20;;;;;;;6.05;4.07;;;18.40;99.90;;;;;;5034327;28;20519;-48
2022/09/05 02:44:57;;;;;;;8.02;4.00;;;18.40;99.90;;;;;;5034691;28;20586;-47
2022/09/05 02:47:54;;;;;;;4.82;4.03;;;18.40;99.90;;;;;;5034515;28;20170;-46
2022/09/05 02:50:29;;;;;;;5.05;3.80;;;18.30;99.90;;;;;;5026966;28;20191;-47
2022/09/05 02:52:56;;;;;;;3.38;3.17;;;18.30;99.90;;;;;;5034217;28;20642;-47
2022/09/05 02:55:30;;;;;;;5.63;4.10;;;18.30;99.90;;;;;;5034072;28;20194;-46
2022/09/05 02:58:23;;;;;;;6.32;4.20;;;18.40;99.90;;;;;;5034018;28;20524;-47
2022/09/05 03:01:24;;;;;;;4.28;3.72;;;18.30;99.90;;;;;;5034235;28;20178;-47
2022/09/05 03:04:21;;;;;;;5.97;4.40;;;18.20;99.90;;;;;;5030860;28;20278;-47
2022/09/05 03:07:07;;;;;;;6.57;3.70;;;18.10;99.90;;;;;;5034226;28;20170;-46
2022/09/05 03:10:02;;;;;;;4.60;3.63;;;18.10;99.90;;;;;;5033758;28;20209;-48
2022/09/05 03:12:38;;;;;;;8.38;4.00;;;18.10;99.90;;;;;;5033988;28;20176;-47
2022/09/05 03:15:48;;;;;;;6.43;3.55;;;18.10;99.90;;;;;;5032477;28;20528;-46
2022/09/05 03:18:32;;;;;;;4.82;3.63;;;18.00;99.90;;;;;;5034001;28;20174;-47
2022/09/05 03:21:03;;;;;;;5.03;3.53;;;18.00;99.90;;;;;;5033550;28;20233;-47
2022/09/05 03:23:55;;;;;;;4.07;3.20;;;18.10;99.90;;;;;;5033515;28;20159;-46
2022/09/05 03:26:58;;;;;;;5.35;3.15;;;18.10;99.90;;;;;;5033534;28;20164;-47
2022/09/05 03:30:00;;;;;;;5.72;3.25;;;18.00;99.90;;;;;;5031384;28;20248;-45
2022/09/05 03:32:59;;;;;;;5.00;3.38;;;18.10;99.90;;;;;;5033234;28;20639;-46
2022/09/05 03:36:11;;;;;;;4.75;3.47;;;18.00;99.90;;;;;;5033611;28;20575;-46
2022/09/05 03:39:01;;;;;;;3.95;3.55;;;17.90;99.90;;;;;;5033210;28;20163;-46
2022/09/05 03:41:45;;;;;;;5.93;4.05;;;17.90;99.90;;;;;;5033013;28;20496;-46
2022/09/05 03:44:23;;;;;;;5.70;4.45;;;17.90;99.90;;;;;;5033056;28;20569;-47
2022/09/05 03:47:25;;;;;;;4.70;4.05;;;17.90;99.90;;;;;;5033010;28;20187;-46
2022/09/05 03:50:16;;;;;;;4.15;3.70;;;17.90;99.90;;;;;;5032953;28;20266;-46
2022/09/05 03:52:57;;;;;;;5.85;4.57;;;17.90;99.90;;;;;;5033495;28;20159;-46
2022/09/05 03:55:53;;;;;;;4.13;3.72;;;17.90;99.90;;;;;;5032882;28;20171;-46
2022/09/05 03:58:29;;;;;;;8.45;4.10;;;17.80;99.90;;;;;;5032866;28;20677;-46
2022/09/05 04:01:06;;;;;;;5.13;3.75;;;17.80;99.90;;;;;;5032847;28;20171;-47
2022/09/05 04:04:01;;;;;;;7.60;3.88;;;17.70;99.90;;;;;;5032640;28;20182;-47
2022/09/05 04:06:39;;;;;;;9.07;4.15;;;17.70;99.90;;;;;;5032543;28;20745;-47
2022/09/05 04:09:25;;;;;;;6.28;3.67;;;17.60;99.90;;;;;;5032573;28;20241;-47
2022/09/05 04:11:59;;;;;;;11.10;4.05;;;17.60;99.90;;;;;;5030904;28;20170;-48
2022/09/05 04:14:33;;;;;;;7.90;4.40;;;17.50;99.90;;;;;;5032514;28;20215;-48
2022/09/05 04:17:22;;;;;;;4.75;4.25;;;17.50;99.90;;;;;;5032567;28;20320;-48
2022/09/05 04:20:11;;;;;;;8.20;5.80;;;17.50;99.90;;;;;;5032551;28;20164;-48
2022/09/05 04:22:39;;;;;;;7.05;5.88;;;17.60;99.90;;;;;;5032419;28;20704;-47
2022/09/05 04:25:11;;;;;;;7.55;6.20;;;17.70;99.90;;;;;;5032432;28;20575;-48
2022/09/05 04:27:47;;;;;;;10.40;6.80;;;17.80;99.90;;;;;;5032321;28;20768;-47
2022/09/05 04:30:49;;;;;;;8.48;6.78;;;17.80;99.90;;;;;;5032557;28;20167;-48
2022/09/05 04:33:21;;;;;;;9.20;7.13;;;17.80;99.90;;;;;;5021195;28;20178;-47
2022/09/05 04:36:08;;;;;;;10.85;7.20;;;17.90;99.90;;;;;;5032138;28;20216;-47
2022/09/05 04:38:41;;;;;;;10.05;8.00;;;17.90;99.90;;;;;;5032149;28;20175;-46
2022/09/05 04:41:19;;;;;;;10.00;7.63;;;17.90;99.90;;;;;;5031724;28;20163;-47
2022/09/05 04:43:54;;;;;;;10.00;7.88;;;17.90;99.90;;;;;;5032354;28;20194;-46
2022/09/05 04:46:30;;;;;;;9.50;7.07;;;17.90;99.90;;;;;;5032291;28;20171;-47
2022/09/05 04:49:14;;;;;;;9.95;7.90;;;17.90;99.90;;;;;;5032109;28;20308;-46
2022/09/05 04:52:05;;;;;;;10.77;7.25;;;17.90;99.90;;;;;;5031429;28;20622;-46
2022/09/05 04:54:45;;;;;;;8.73;7.60;;;17.90;99.90;;;;;;5031072;28;20177;-47
2022/09/05 04:57:19;;;;;;;9.93;7.55;;;17.90;99.90;;;;;;5031832;28;20170;-47
2022/09/05 05:00:03;;;;;;;9.27;7.05;;;17.90;99.90;;;;;;5032082;28;20171;-46
2022/09/05 05:02:40;;;;;;;10.13;7.32;;;17.90;99.90;;;;;;5031977;28;20504;-47
2022/09/05 05:05:50;;;;;;;7.40;6.70;;;17.90;99.90;;;;;;5031708;28;20210;-47
2022/09/05 05:08:27;;;;;;;8.50;7.20;;;18.00;99.90;;;;;;5010251;28;20204;-46
2022/09/05 05:10:58;;;;;;;13.70;6.97;;;18.00;99.90;;;;;;5030552;28;20179;-47
2022/09/05 05:13:54;;;;;;;7.50;6.70;;;18.00;99.90;;;;;;5034854;28;20582;-47
2022/09/05 05:16:25;;;;;;;6.85;5.82;;;18.00;99.90;;;;;;5030214;28;20226;-46
2022/09/05 05:19:15;;;;;;;9.55;7.53;;;18.00;99.90;;;;;;5031553;28;20185;-47
2022/09/05 05:21:54;;;;;;;10.18;6.78;;;18.10;99.90;;;;;;5031650;28;20277;-47
2022/09/05 05:24:25;;;;;;;6.88;5.93;;;18.00;99.90;;;;;;5031520;28;20171;-47
2022/09/05 05:27:04;;;;;;;7.28;6.30;;;18.00;99.90;;;;;;5031577;28;20278;-47
2022/09/05 05:29:42;;;;;;;11.02;6.35;;;18.00;99.90;;;;;;5031252;28;20206;-46
2022/09/05 05:32:13;;;;;;;6.93;5.85;;;18.10;99.90;;;;;;5031619;28;20167;-47
2022/09/05 05:34:46;;;;;;;8.98;6.22;;;18.10;99.90;;;;;;5031271;28;20262;-48
2022/09/05 05:37:41;;;;;;;6.07;5.43;;;18.10;99.90;;;;;;5031660;28;20191;-47
2022/09/05 05:40:18;;;;;;;7.55;5.65;;;18.10;99.90;;;;;;5031367;28;20171;-48
2022/09/05 05:42:45;;;;;;;7.57;5.45;;;18.10;99.90;;;;;;5031572;28;20164;-47
2022/09/05 05:45:24;;;;;;;6.97;5.28;;;18.20;99.90;;;;;;5031459;28;20254;-47
2022/09/05 05:48:03;;;;;;;7.47;5.65;;;18.20;99.90;;;;;;5031296;28;20261;-47
2022/09/05 05:50:52;;;;;;;9.27;5.40;;;18.20;99.90;;;;;;5031358;28;20168;-48
2022/09/05 05:53:39;;;;;;;7.95;4.80;;;18.20;99.90;;;;;;5032166;28;20221;-48
2022/09/05 05:56:48;;;;;;;5.50;4.53;;;18.30;99.90;;;;;;5035167;28;20186;-47
2022/09/05 05:59:39;;;;;;;5.55;5.05;;;18.30;99.90;;;;;;5035316;28;20167;-47
2022/09/05 06:02:40;;;;;;;7.05;5.38;;;18.30;99.90;;;;;;5034860;28;20661;-48
2022/09/05 06:05:08;;;;;;;5.00;4.50;;;18.50;99.90;;;;;;5034720;28;20171;-48
2022/09/05 06:07:46;;;;;;;6.53;5.38;;;18.50;99.90;;;;;;5034825;28;20178;-48
2022/09/05 06:10:42;;;;;;;6.78;5.07;;;18.50;99.90;;;;;;5035165;28;20175;-48
2022/09/05 06:13:39;;;;;;;5.30;4.57;;;18.60;99.90;;;;;;5034803;28;20179;-46
2022/09/05 06:16:48;;;;;;;7.47;5.20;;;18.60;99.90;;;;;;5034457;28;20211;-46
2022/09/05 06:19:51;;;;;;;6.97;5.00;;;18.70;99.90;;;;;;5033707;28;20168;-47
2022/09/05 06:22:31;;;;;;;8.55;5.07;;;18.70;99.90;;;;;;5015178;28;20215;-46
2022/09/05 06:25:20;;;;;;;6.78;4.38;;;18.90;99.90;;;;;;5034851;28;20663;-48
2022/09/05 06:28:06;;;;;;;7.03;4.53;;;19.00;99.90;;;;;;5034760;28;20702;-46
2022/09/05 06:30:50;;;;;;;10.63;4.40;;;19.10;99.90;;;;;;5034469;28;20171;-47
2022/09/05 06:33:48;;;;;;;7.00;4.75;;;19.10;99.90;;;;;;5034758;28;20163;-47
2022/09/05 06:36:19;;;;;;;9.57;4.55;;;19.20;99.90;;;;;;5034750;28;20471;-46
2022/09/05 06:38:51;;;;;;;6.45;3.83;;;19.30;99.90;;;;;;5045409;28;20175;-47
2022/09/05 06:42:00;;;;;;;5.75;4.30;;;19.40;99.90;;;;;;5053103;28;20596;-45
2022/09/05 06:44:43;;;;;;;6.38;4.32;;;19.50;99.90;;;;;;5052857;28;20220;-46
2022/09/05 06:47:16;;;;;;;5.50;4.53;;;19.60;99.90;;;;;;5052793;28;20167;-46
2022/09/05 06:49:51;;;;;;;6.28;3.83;;;19.70;99.90;;;;;;5052991;28;20696;-47
2022/09/05 06:52:41;;;;;;;5.80;3.88;;;19.90;99.90;;;;;;5052903;28;20177;-44
2022/09/05 06:55:18;;;;;;;8.18;3.90;;;20.00;99.90;;;;;;5052669;28;20575;-48
2022/09/05 06:58:05;;;;;;;5.55;4.20;;;20.00;99.90;;;;;;5052999;28;20162;-42
2022/09/05 07:00:41;;;;;;;4.93;3.92;;;20.10;99.90;;;;;;5052825;28;20612;-46
2022/09/05 07:03:41;;;;;;;7.57;4.45;;;20.20;99.90;;;;;;5052512;28;20170;-48
2022/09/05 07:06:22;;;;;;;11.43;4.25;;;20.40;99.90;;;;;;5040670;28;20690;-52
2022/09/05 07:09:16;;;;;;;11.25;4.18;;;20.50;99.90;;;;;;5052386;28;20238;-46
2022/09/05 07:12:12;;;;;;;6.25;4.10;;;20.60;99.90;;;;;;5053035;28;20171;-51
2022/09/05 07:14:51;;;;;;;5.38;4.30;;;20.80;99.90;;;;;;5052237;28;20214;-45
2022/09/05 07:17:37;;;;;;;6.22;4.10;;;20.70;99.90;;;;;;5052308;28;20268;-46
2022/09/05 07:20:20;;;;;;;5.10;4.10;;;20.90;99.90;;;;;;5051012;28;20530;-45
2022/09/05 07:22:59;;;;;;;4.47;3.28;;;20.90;99.90;;;;;;5052424;28;20185;-46
2022/09/05 07:25:30;;;;;;;3.72;3.35;;;21.20;99.90;;;;;;5052050;28;20175;-45
2022/09/05 07:28:08;;;;;;;5.78;4.40;;;21.30;99.90;;;;;;5052102;28;20191;-45
2022/09/05 07:30:38;;;;;;;4.50;3.35;;;21.50;99.90;;;;;;5052040;28;20699;-48
2022/09/05 07:33:04;;;;;;;4.00;3.20;;;21.60;99.90;;;;;;5052056;28;20169;-51
2022/09/05 07:35:33;;;;;;;5.10;3.50;;;21.60;99.90;;;;;;5052346;28;20533;-50
2022/09/05 07:38:12;;;;;;;6.90;4.00;;;21.70;99.90;;;;;;5051859;28;20170;-48
2022/09/05 07:40:43;;;;;;;6.30;3.17;;;21.80;99.90;;;;;;5052140;28;20205;-50
2022/09/05 07:43:15;;;;;;;8.02;3.47;;;22.00;99.90;;;;;;5051601;28;20162;-48
2022/09/05 07:45:49;;;;;;;4.53;3.45;;;22.10;99.90;;;;;;5052234;28;20174;-46
2022/09/05 07:48:24;;;;;;;4.85;3.50;;;22.30;99.90;;;;;;5051625;28;20216;-48
2022/09/05 07:50:59;;;;;;;4.50;3.15;;;22.40;99.90;;;;;;5050095;28;20168;-48
2022/09/05 07:53:25;;;;;;;7.72;3.53;;;22.60;99.90;;;;;;5051425;28;20162;-49
2022/09/05 07:55:55;;;;;;;6.95;3.50;;;22.60;99.90;;;;;;5051410;28;20167;-49
2022/09/05 07:58:23;;;;;;;9.90;3.33;;;22.70;99.90;;;;;;5051449;28;20513;-50
2022/09/05 08:00:55;;;;;;;5.85;3.10;;;22.90;99.90;;;;;;5051593;28;20181;-52
2022/09/05 08:03:27;;;;;;;4.93;3.22;;;23.00;99.90;;;;;;5051544;28;20248;-49
2022/09/05 08:05:56;;;;;;;4.25;3.35;;;23.20;99.90;;;;;;5051530;28;20528;-45
2022/09/05 08:08:45;;;;;;;5.25;2.90;;;23.20;99.90;;;;;;5051293;28;20213;-46
2022/09/05 08:11:13;;;;;;;4.45;3.00;;;23.40;99.90;;;;;;5040288;28;20646;-52
2022/09/05 08:13:38;;;;;;;4.25;3.05;;;23.60;99.90;;;;;;5051151;28;20162;-46
2022/09/05 08:16:04;;;;;;;10.15;3.67;;;23.70;99.90;;;;;;5050380;28;20783;-50
2022/09/05 08:18:46;;;;;;;10.48;4.15;;;23.70;99.90;;;;;;5051168;28;20185;-53
2022/09/05 08:21:48;;;;;;;7.53;2.83;;;23.90;99.90;;;;;;5051309;28;20167;-45
2022/09/05 08:24:14;;;;;;;4.95;3.03;;;24.00;99.90;;;;;;5049777;28;20546;-45
2022/09/05 08:26:45;;;;;;;7.47;3.10;;;24.20;99.90;;;;;;5051134;28;20170;-47
2022/09/05 08:29:25;;;;;;;5.30;3.00;;;24.20;99.90;;;;;;5051920;28;20622;-47
2022/09/05 08:32:07;;;;;;;4.13;3.00;;;24.30;99.90;;;;;;5051041;28;20198;-47
2022/09/05 08:35:01;;;;;;;2.83;2.60;;;24.50;99.90;;;;;;5051034;28;20249;-46
2022/09/05 08:37:30;;;;;;;6.78;2.85;;;24.60;99.90;;;;;;5031226;28;20198;-48
2022/09/05 08:40:06;;;;;;;9.88;2.92;;;24.60;99.90;;;;;;5030971;28;20655;-47
2022/09/05 08:42:52;;;;;;;7.35;2.60;;;24.90;99.90;;;;;;5031013;28;20185;-47
2022/09/05 08:45:21;;;;;;;3.00;2.70;;;25.00;99.90;;;;;;5030735;28;20174;-48
2022/09/05 08:47:49;;;;;;;3.60;2.63;;;25.10;99.90;;;;;;5030534;28;20167;-48
2022/09/05 08:50:24;;;;;;;4.28;2.60;;;25.20;99.90;;;;;;5031182;28;20224;-47
2022/09/05 08:53:30;;;;;;;3.55;2.40;;;25.30;99.90;;;;;;5030717;28;20191;-49
2022/09/05 08:56:01;;;;;;;4.70;2.75;;;25.30;99.90;;;;;;5020508;28;20238;-48
2022/09/05 08:58:54;;;;;;;6.40;2.78;;;25.30;99.90;;;;;;5031156;28;20174;-47
2022/09/05 09:01:32;;;;;;;5.38;2.55;;;25.40;99.90;;;;;;5030599;28;20166;-49
2022/09/05 09:04:16;;;;;;;4.80;2.20;;;25.40;99.90;;;;;;5030353;28;20309;-48
2022/09/05 09:07:06;;;;;;;5.00;2.97;;;25.50;99.90;;;;;;5030813;28;20167;-48
2022/09/05 09:09:42;;;;;;;9.40;3.35;;;25.60;99.90;;;;;;5030292;28;20293;-47
2022/09/05 09:12:26;;;;;;;4.47;2.65;;;25.80;99.90;;;;;;5030415;28;20198;-47
2022/09/05 09:15:23;;;;;;;2.30;2.10;;;25.90;99.90;;;;;;5030276;28;20218;-49
2022/09/05 09:17:51;;;;;;;3.40;2.60;;;26.10;99.90;;;;;;5033038;28;20654;-47
2022/09/05 09:20:50;;;;;;;4.15;2.60;;;26.30;99.90;;;;;;5050388;28;20166;-47
2022/09/05 09:23:34;;;;;;;4.22;2.53;;;26.20;99.90;;;;;;5050230;28;20158;-47
2022/09/05 09:26:14;;;;;;;4.55;2.72;;;26.30;99.90;;;;;;5049064;28;20162;-46
2022/09/05 09:29:02;;;;;;;3.00;2.03;;;26.30;99.90;;;;;;5053320;28;20205;-47
2022/09/05 09:31:45;;;;;;;5.35;2.58;;;26.40;99.90;;;;;;5054158;28;20715;-47
2022/09/05 09:34:25;;;;;;;4.28;2.38;;;26.50;99.90;;;;;;5055046;28;20244;-47
2022/09/05 09:37:15;;;;;;;5.38;2.42;;;26.60;99.90;;;;;;5054527;28;20177;-47
2022/09/05 09:39:58;;;;;;;3.08;2.20;;;26.80;99.90;;;;;;5054494;28;20651;-47
2022/09/05 09:43:00;;;;;;;3.45;2.20;;;26.90;99.90;;;;;;5054257;28;20166;-48
2022/09/05 09:45:50;;;;;;;2.22;2.05;;;26.90;99.90;;;;;;5054232;28;20174;-47
2022/09/05 09:48:42;;;;;;;3.47;2.20;;;27.90;99.90;;;;;;5044635;28;20259;-46
2022/09/05 09:51:26;;;;;;;3.30;2.10;;;27.00;99.90;;;;;;5044471;28;20239;-47
2022/09/05 09:54:15;;;;;;;3.80;2.10;;;27.30;99.90;;;;;;5044611;28;20190;-46
2022/09/05 09:57:11;;;;;;;6.32;2.75;;;27.40;99.90;;;;;;5043651;28;20167;-45
2022/09/05 10:00:22;;;;;;;3.40;2.45;;;27.40;99.90;;;;;;5041704;28;20165;-46
2022/09/05 10:03:13;;;;;;;3.10;2.05;;;27.40;99.90;;;;;;5023230;28;20193;-48
2022/09/05 10:05:51;;;;;;;4.95;2.30;;;27.40;99.90;;;;;;5033975;28;20245;-49
2022/09/05 10:08:41;;;;;;;5.10;2.10;;;27.40;99.90;;;;;;5033790;28;20209;-49
2022/09/05 10:11:38;;;;;;;4.47;2.20;;;27.60;99.90;;;;;;5033723;28;20181;-48
2022/09/05 10:14:06;;;;;;;4.40;2.15;;;27.70;99.90;;;;;;5033802;28;20163;-48
2022/09/05 10:17:11;;;;;;;2.95;2.20;;;27.70;99.90;;;;;;5033133;28;20182;-47
2022/09/05 10:20:01;;;;;;;6.75;2.13;;;27.90;99.90;;;;;;5033728;28;20171;-47
2022/09/05 10:22:38;;;;;;;5.28;2.00;;;27.90;99.90;;;;;;5033522;28;20575;-48
2022/09/05 10:25:52;;;;;;;4.95;1.80;;;28.20;99.90;;;;;;5033546;28;20627;-47
2022/09/05 10:28:38;;;;;;;2.13;1.90;;;28.20;99.90;;;;;;5032133;28;20214;-48
2022/09/05 10:31:19;;;;;;;4.68;2.10;;;28.50;99.90;;;;;;5033687;28;20534;-46
2022/09/05 10:33:58;;;;;;;5.00;1.90;;;28.50;97.80;;;;;;5033304;28;20178;-46
2022/09/05 10:36:26;;;;;;;2.10;1.70;;;28.40;97.40;;;;;;5033384;28;20174;-46
2022/09/05 10:39:24;;;;;;;4.75;2.10;;;28.60;97.60;;;;;;5032620;28;20167;-48
2022/09/05 10:42:00;;;;;;;2.30;1.98;;;28.90;97.60;;;;;;5033126;28;20665;-47
2022/09/05 10:44:33;;;;;;;2.60;2.00;;;28.80;96.10;;;;;;5033091;28;20638;-47
2022/09/05 10:47:29;;;;;;;2.33;2.13;;;28.90;97.00;;;;;;5032923;28;20186;-47
2022/09/05 10:50:27;;;;;;;2.28;1.90;;;28.90;95.60;;;;;;5022542;28;20730;-46
2022/09/05 10:53:01;;;;;;;2.20;2.00;;;29.10;95.10;;;;;;5033159;28;20175;-46
2022/09/05 10:55:44;;;;;;;3.53;2.00;;;29.20;93.80;;;;;;5032706;28;20167;-47
2022/09/05 10:58:32;;;;;;;4.40;2.15;;;29.10;94.80;;;;;;5033154;28;20182;-49
2022/09/05 11:01:24;;;;;;;4.32;2.38;;;29.30;95.00;;;;;;5032903;28;20167;-47
2022/09/05 11:04:09;;;;;;;3.10;2.17;;;29.40;94.30;;;;;;5037717;28;20178;-48
2022/09/05 11:06:41;;;;;;;5.45;2.40;;;29.40;93.20;;;;;;5032217;28;20167;-47
2022/09/05 11:09:25;;;;;;;3.15;2.17;;;29.40;92.60;;;;;;5032719;28;20202;-48
2022/09/05 11:12:25;;;;;;;4.85;2.13;;;29.50;93.20;;;;;;5033466;28;20502;-49
2022/09/05 11:15:00;;;;;;;4.57;2.55;;;29.60;92.10;;;;;;5031708;28;20219;-49
2022/09/05 11:17:50;;;;;;;2.08;1.88;;;29.60;91.40;;;;;;5032802;28;20186;-49
2022/09/05 11:20:37;;;;;;;4.93;2.00;;;29.70;91.30;;;;;;5032055;28;20167;-48
2022/09/05 11:23:18;;;;;;;3.25;1.90;;;29.70;90.30;;;;;;5032361;28;20174;-48
2022/09/05 11:25:46;;;;;;;2.00;1.80;;;29.70;89.80;;;;;;5032425;28;20163;-49
2022/09/05 11:28:16;;;;;;;4.63;2.22;;;29.60;87.70;;;;;;5032901;28;20194;-48
2022/09/05 11:30:49;;;;;;;6.50;2.00;;;29.70;89.10;;;;;;5032500;28;20178;-49
2022/09/05 11:33:38;;;;;;;4.40;2.15;;;29.90;88.40;;;;;;5032265;28;20595;-47
2022/09/05 11:36:08;;;;;;;2.95;2.17;;;29.70;88.40;;;;;;5032614;28;20186;-49
2022/09/05 11:38:58;;;;;;;6.40;2.10;;;29.70;86.70;;;;;;5032072;28;20199;-48
2022/09/05 11:41:30;;;;;;;3.47;2.10;;;29.80;89.60;;;;;;5031747;28;20559;-48
2022/09/05 11:44:23;;;;;;;5.50;2.10;;;29.90;86.50;;;;;;5031898;28;20171;-48
2022/09/05 11:47:14;;;;;;;5.75;2.10;;;29.90;87.00;;;;;;5031458;28;20193;-48
2022/09/05 11:49:45;;;;;;;4.28;1.80;;;30.10;87.00;;;;;;5032089;28;20224;-49
2022/09/05 11:52:38;;;;;;;2.03;1.83;;;30.00;85.30;;;;;;5031551;28;20240;-47
2022/09/05 11:55:39;;;;;;;2.10;1.80;;;29.90;85.30;;;;;;5031664;28;20179;-48
2022/09/05 11:58:07;;;;;;;2.42;1.95;;;29.70;85.10;;;;;;5031671;28;20212;-49
2022/09/05 12:00:42;;;;;;;4.38;1.88;;;29.90;85.50;;;;;;5031622;28;20171;-48
2022/09/05 12:03:36;;;;;;;1.98;1.60;;;30.10;83.90;;;;;;5030933;28;20248;-46
2022/09/05 12:06:29;;;;;;;2.17;1.67;;;30.10;81.30;;;;;;5030530;28;20191;-46
2022/09/05 12:09:16;;;;;;;3.20;2.03;;;30.10;81.70;;;;;;5031311;28;20207;-48
2022/09/05 12:12:00;;;;;;;4.75;2.17;;;30.10;80.50;;;;;;5031257;28;20235;-47
2022/09/05 12:14:44;;;;;;;6.82;1.90;;;30.30;83.40;;;;;;5031286;28;20592;-47
2022/09/05 12:17:40;;;;;;;5.93;2.20;;;30.30;81.30;;;;;;5031396;28;20637;-47
2022/09/05 12:20:11;;;;;;;3.63;1.85;;;30.40;82.10;;;;;;5031017;28;20166;-48
2022/09/05 12:22:56;;;;;;;5.38;1.67;;;30.50;83.60;;;;;;5030776;28;20194;-49
2022/09/05 12:25:47;;;;;;;3.42;1.83;;;30.70;81.10;;;;;;5030664;28;20178;-48
2022/09/05 12:28:30;;;;;;;4.97;1.80;;;30.80;80.00;;;;;;5031128;28;20569;-47
2022/09/05 12:31:14;;;;;;;3.60;1.60;;;30.60;80.10;;;;;;5030875;28;20237;-47
2022/09/05 12:33:46;;;;;;;3.45;1.85;;;30.60;81.00;;;;;;5030800;28;20618;-48
2022/09/05 12:36:40;;;;;;;1.55;1.45;;;30.50;81.00;;;;;;5031179;28;20612;-48
2022/09/05 12:39:26;;;;;;;4.63;1.80;;;30.20;79.10;;;;;;5029721;28;20179;-47
2022/09/05 12:42:13;;;;;;;3.83;1.63;;;30.20;77.90;;;;;;5030933;28;20266;-48
2022/09/05 12:44:48;;;;;;;2.00;1.70;;;30.10;77.90;;;;;;5030740;28;20221;-47
2022/09/05 12:47:19;;;;;;;4.63;1.52;;;30.00;75.30;;;;;;5030499;28;20197;-47
2022/09/05 12:50:12;;;;;;;3.28;1.70;;;30.10;71.60;;;;;;5030507;28;20206;-47
2022/09/05 12:52:45;;;;;;;2.75;1.65;;;30.20;72.90;;;;;;5030569;28;20874;-46
2022/09/05 12:55:16;;;;;;;2.53;1.55;;;30.50;75.80;;;;;;5030611;28;20178;-46
2022/09/05 12:57:43;;;;;;;1.83;1.65;;;30.80;74.90;;;;;;5029864;28;20175;-49
2022/09/05 13:00:13;;;;;;;2.67;1.77;;;30.90;74.60;;;;;;5030293;28;20634;-48
2022/09/05 13:02:45;;;;;;;1.85;1.75;;;31.00;74.00;;;;;;5030273;28;20206;-47
2022/09/05 13:05:46;;;;;;;2.35;1.90;;;30.90;74.10;;;;;;5030784;28;20159;-48
2022/09/05 13:08:19;;;;;;;4.55;1.55;;;30.60;74.20;;;;;;5029862;28;20570;-54
2022/09/05 13:10:53;;;;;;;1.70;1.60;;;30.80;73.60;;;;;;5030352;28;20185;-48
2022/09/05 13:13:31;;;;;;;3.80;1.67;;;30.80;74.50;;;;;;5030403;28;20167;-50
2022/09/05 13:16:02;;;;;;;2.00;1.80;;;31.80;76.20;;;;;;5030415;28;20288;-48
2022/09/05 13:18:41;;;;;;;2.80;1.83;;;31.10;73.50;;;;;;5029101;28;20577;-49
2022/09/05 13:21:27;;;;;;;5.68;1.80;;;31.00;73.00;;;;;;5030293;28;20174;-49
2022/09/05 13:24:11;;;;;;;2.00;1.80;;;31.30;73.00;;;;;;5029900;28;20569;-48
2022/09/05 13:27:12;;;;;;;2.17;1.75;;;31.30;74.10;;;;;;5030360;28;20162;-47
2022/09/05 13:29:57;;;;;;;2.50;1.60;;;31.30;71.90;;;;;;5029661;28;20688;-49
2022/09/05 13:32:36;;;;;;;2.20;1.80;;;31.30;69.50;;;;;;5030363;28;20233;-49
2022/09/05 13:35:14;;;;;;;3.28;1.80;;;31.10;70.60;;;;;;5029768;28;20246;-49
2022/09/05 13:38:26;;;;;;;1.70;1.55;;;31.20;71.50;;;;;;5029971;28;20167;-48
2022/09/05 13:40:58;;;;;;;5.00;1.60;;;31.00;70.30;;;;;;5029611;28;20187;-48
2022/09/05 13:43:31;;;;;;;3.00;1.90;;;30.90;68.90;;;;;;5030571;28;20588;-50
2022/09/05 13:46:09;;;;;;;2.70;1.73;;;30.60;71.30;;;;;;5030274;28;20596;-50
2022/09/05 13:48:50;;;;;;;3.53;1.60;;;30.60;72.70;;;;;;5030222;28;20294;-50
2022/09/05 13:51:33;;;;;;;2.97;1.90;;;30.60;73.20;;;;;;5030275;28;20197;-48
2022/09/05 13:54:35;;;;;;;2.42;1.60;;;30.70;74.50;;;;;;5029884;28;20174;-49
2022/09/05 13:57:18;;;;;;;3.17;1.83;;;30.60;72.70;;;;;;5030177;28;20257;-49
2022/09/05 14:00:06;;;;;;;2.90;1.85;;;30.40;73.60;;;;;;5035709;28;20190;-48
2022/09/05 14:03:11;;;;;;;5.05;2.10;;;30.30;73.40;;;;;;5040478;28;20212;-49
2022/09/05 14:06:24;;;;;;;7.72;2.00;;;30.30;73.10;;;;;;5039023;28;20174;-48
2022/09/05 14:09:15;;;;;;;2.47;1.90;;;30.30;73.00;;;;;;5035102;28;20202;-49
2022/09/05 14:11:46;;;;;;;1.83;1.70;;;30.40;73.40;;;;;;5030017;28;20167;-49